sensor_id;sensor_type;location;lat;lon;timestamp;P1;durP1;ratioP1;P2;durP2;ratioP2
64598;SDS011;51008;51.504;11.548;2022-09-03T00:03:42;14.77;;;2.25;;
64598;SDS011;51008;51.504;11.548;2022-09-03T00:14:22;10.32;;;2.38;;
64598;SDS011;51008;51.504;11.548;2022-09-03T00:19:27;6.05;;;1.70;;
64598;SDS011;51008;51.504;11.548;2022-09-03T00:24:33;6.75;;;2.38;;
64598;SDS011;51008;51.504;11.548;2022-09-03T00:29:38;9.88;;;2.45;;
64598;SDS011;51008;51.504;11.548;2022-09-03T00:34:46;15.48;;;2.30;;
64598;SDS011;51008;51.504;11.548;2022-09-03T00:39:50;7.50;;;2.17;;
64598;SDS011;51008;51.504;11.548;2022-09-03T00:50:19;5.25;;;2.17;;
64598;SDS011;51008;51.504;11.548;2022-09-03T01:01:04;3.67;;;1.70;;
64598;SDS011;51008;51.504;11.548;2022-09-03T01:06:17;5.07;;;1.92;;
64598;SDS011;51008;51.504;11.548;2022-09-03T01:11:26;4.63;;;1.77;;
64598;SDS011;51008;51.504;11.548;2022-09-03T01:33:43;2.83;;;1.70;;
64598;SDS011;51008;51.504;11.548;2022-09-03T01:38:58;2.92;;;1.40;;
64598;SDS011;51008;51.504;11.548;2022-09-03T01:44:23;4.22;;;1.75;;
64598;SDS011;51008;51.504;11.548;2022-09-03T01:49:39;4.88;;;1.35;;
64598;SDS011;51008;51.504;11.548;2022-09-03T01:59:47;3.92;;;1.70;;
64598;SDS011;51008;51.504;11.548;2022-09-03T02:05:14;3.80;;;1.30;;
64598;SDS011;51008;51.504;11.548;2022-09-03T02:10:19;2.40;;;1.20;;
64598;SDS011;51008;51.504;11.548;2022-09-03T02:15:25;6.38;;;1.67;;
64598;SDS011;51008;51.504;11.548;2022-09-03T02:20:27;4.05;;;1.50;;
64598;SDS011;51008;51.504;11.548;2022-09-03T02:25:31;12.27;;;1.50;;
64598;SDS011;51008;51.504;11.548;2022-09-03T02:30:37;6.25;;;1.40;;
64598;SDS011;51008;51.504;11.548;2022-09-03T02:35:39;4.55;;;1.70;;
64598;SDS011;51008;51.504;11.548;2022-09-03T02:40:40;5.47;;;1.63;;
64598;SDS011;51008;51.504;11.548;2022-09-03T02:45:43;3.63;;;1.60;;
64598;SDS011;51008;51.504;11.548;2022-09-03T02:50:46;3.72;;;1.50;;
64598;SDS011;51008;51.504;11.548;2022-09-03T02:55:47;2.58;;;1.50;;
64598;SDS011;51008;51.504;11.548;2022-09-03T03:00:48;5.95;;;1.70;;
64598;SDS011;51008;51.504;11.548;2022-09-03T03:05:53;4.38;;;1.63;;
64598;SDS011;51008;51.504;11.548;2022-09-03T03:10:56;3.80;;;1.58;;
64598;SDS011;51008;51.504;11.548;2022-09-03T03:15:58;6.38;;;1.65;;
64598;SDS011;51008;51.504;11.548;2022-09-03T03:21:04;2.70;;;1.60;;
64598;SDS011;51008;51.504;11.548;2022-09-03T03:26:08;3.65;;;1.50;;
64598;SDS011;51008;51.504;11.548;2022-09-03T03:31:11;2.75;;;1.60;;
64598;SDS011;51008;51.504;11.548;2022-09-03T03:36:14;1.63;;;1.30;;
64598;SDS011;51008;51.504;11.548;2022-09-03T03:41:19;1.50;;;1.40;;
64598;SDS011;51008;51.504;11.548;2022-09-03T03:46:22;3.95;;;1.50;;
64598;SDS011;51008;51.504;11.548;2022-09-03T03:51:23;5.32;;;1.60;;
64598;SDS011;51008;51.504;11.548;2022-09-03T03:56:25;5.80;;;1.83;;
64598;SDS011;51008;51.504;11.548;2022-09-03T04:01:27;3.47;;;1.60;;
64598;SDS011;51008;51.504;11.548;2022-09-03T04:06:28;4.72;;;1.60;;
64598;SDS011;51008;51.504;11.548;2022-09-03T04:11:29;5.20;;;1.90;;
64598;SDS011;51008;51.504;11.548;2022-09-03T04:16:30;3.28;;;1.77;;
64598;SDS011;51008;51.504;11.548;2022-09-03T04:21:31;2.58;;;1.70;;
64598;SDS011;51008;51.504;11.548;2022-09-03T04:26:33;3.55;;;1.90;;
64598;SDS011;51008;51.504;11.548;2022-09-03T04:31:35;6.32;;;1.75;;
64598;SDS011;51008;51.504;11.548;2022-09-03T04:36:37;3.88;;;1.73;;
64598;SDS011;51008;51.504;11.548;2022-09-03T04:41:38;3.85;;;1.60;;
64598;SDS011;51008;51.504;11.548;2022-09-03T04:46:39;3.65;;;1.70;;
64598;SDS011;51008;51.504;11.548;2022-09-03T04:51:40;5.10;;;1.67;;
64598;SDS011;51008;51.504;11.548;2022-09-03T04:56:41;4.53;;;1.70;;
64598;SDS011;51008;51.504;11.548;2022-09-03T05:01:42;2.63;;;1.80;;
64598;SDS011;51008;51.504;11.548;2022-09-03T05:06:43;6.30;;;1.67;;
64598;SDS011;51008;51.504;11.548;2022-09-03T05:11:44;4.47;;;2.10;;
64598;SDS011;51008;51.504;11.548;2022-09-03T05:16:45;3.15;;;2.00;;
64598;SDS011;51008;51.504;11.548;2022-09-03T05:21:46;2.33;;;1.75;;
64598;SDS011;51008;51.504;11.548;2022-09-03T05:26:47;2.55;;;1.58;;
64598;SDS011;51008;51.504;11.548;2022-09-03T05:31:48;3.22;;;1.85;;
64598;SDS011;51008;51.504;11.548;2022-09-03T05:36:49;3.92;;;2.08;;
64598;SDS011;51008;51.504;11.548;2022-09-03T05:41:50;3.17;;;1.85;;
64598;SDS011;51008;51.504;11.548;2022-09-03T05:46:51;4.00;;;1.90;;
64598;SDS011;51008;51.504;11.548;2022-09-03T05:51:52;4.43;;;1.70;;
64598;SDS011;51008;51.504;11.548;2022-09-03T05:56:53;8.18;;;1.90;;
64598;SDS011;51008;51.504;11.548;2022-09-03T06:01:54;8.80;;;2.10;;
64598;SDS011;51008;51.504;11.548;2022-09-03T06:06:54;5.55;;;1.92;;
64598;SDS011;51008;51.504;11.548;2022-09-03T06:11:55;10.18;;;2.00;;
64598;SDS011;51008;51.504;11.548;2022-09-03T06:16:56;9.07;;;2.30;;
64598;SDS011;51008;51.504;11.548;2022-09-03T06:22:00;5.97;;;2.30;;
64598;SDS011;51008;51.504;11.548;2022-09-03T06:27:01;2.85;;;1.75;;
64598;SDS011;51008;51.504;11.548;2022-09-03T06:32:02;4.50;;;2.20;;
64598;SDS011;51008;51.504;11.548;2022-09-03T06:37:03;4.38;;;1.90;;
64598;SDS011;51008;51.504;11.548;2022-09-03T06:42:04;4.93;;;2.20;;
64598;SDS011;51008;51.504;11.548;2022-09-03T06:47:09;3.67;;;2.00;;
64598;SDS011;51008;51.504;11.548;2022-09-03T06:52:10;6.45;;;2.40;;
64598;SDS011;51008;51.504;11.548;2022-09-03T06:57:11;3.47;;;1.88;;
64598;SDS011;51008;51.504;11.548;2022-09-03T07:02:12;4.47;;;2.03;;
64598;SDS011;51008;51.504;11.548;2022-09-03T07:07:13;4.97;;;2.25;;
64598;SDS011;51008;51.504;11.548;2022-09-03T07:12:14;6.05;;;2.13;;
64598;SDS011;51008;51.504;11.548;2022-09-03T07:17:15;4.63;;;2.15;;
64598;SDS011;51008;51.504;11.548;2022-09-03T07:22:16;6.93;;;2.38;;
64598;SDS011;51008;51.504;11.548;2022-09-03T07:27:17;8.18;;;2.70;;
64598;SDS011;51008;51.504;11.548;2022-09-03T07:32:18;5.18;;;1.98;;
64598;SDS011;51008;51.504;11.548;2022-09-03T07:37:19;10.82;;;2.78;;
64598;SDS011;51008;51.504;11.548;2022-09-03T07:42:20;10.45;;;2.97;;
64598;SDS011;51008;51.504;11.548;2022-09-03T07:47:21;17.10;;;2.35;;
64598;SDS011;51008;51.504;11.548;2022-09-03T07:52:22;7.07;;;2.33;;
64598;SDS011;51008;51.504;11.548;2022-09-03T07:57:23;7.18;;;2.33;;
64598;SDS011;51008;51.504;11.548;2022-09-03T08:02:24;6.25;;;2.15;;
64598;SDS011;51008;51.504;11.548;2022-09-03T08:07:25;7.80;;;2.45;;
64598;SDS011;51008;51.504;11.548;2022-09-03T08:12:28;7.30;;;2.47;;
64598;SDS011;51008;51.504;11.548;2022-09-03T08:17:30;4.43;;;2.13;;
64598;SDS011;51008;51.504;11.548;2022-09-03T08:22:31;4.88;;;1.88;;
64598;SDS011;51008;51.504;11.548;2022-09-03T08:27:32;5.57;;;2.22;;
64598;SDS011;51008;51.504;11.548;2022-09-03T08:32:33;7.47;;;2.88;;
64598;SDS011;51008;51.504;11.548;2022-09-03T08:37:34;11.63;;;3.30;;
64598;SDS011;51008;51.504;11.548;2022-09-03T08:43:17;12.68;;;2.20;;
64598;SDS011;51008;51.504;11.548;2022-09-03T08:48:20;8.45;;;2.30;;
64598;SDS011;51008;51.504;11.548;2022-09-03T08:58:37;6.70;;;2.00;;
64598;SDS011;51008;51.504;11.548;2022-09-03T09:15:02;5.78;;;1.67;;
64598;SDS011;51008;51.504;11.548;2022-09-03T09:20:11;4.75;;;1.70;;
64598;SDS011;51008;51.504;11.548;2022-09-03T09:25:21;5.90;;;1.70;;
64598;SDS011;51008;51.504;11.548;2022-09-03T09:30:23;4.20;;;1.58;;
64598;SDS011;51008;51.504;11.548;2022-09-03T09:35:24;2.78;;;1.58;;
64598;SDS011;51008;51.504;11.548;2022-09-03T09:40:32;3.35;;;1.60;;
64598;SDS011;51008;51.504;11.548;2022-09-03T09:45:33;3.17;;;1.52;;
64598;SDS011;51008;51.504;11.548;2022-09-03T09:50:34;7.40;;;1.88;;
64598;SDS011;51008;51.504;11.548;2022-09-03T09:55:37;5.97;;;1.67;;
64598;SDS011;51008;51.504;11.548;2022-09-03T10:00:57;6.40;;;1.77;;
64598;SDS011;51008;51.504;11.548;2022-09-03T10:06:34;3.25;;;1.50;;
64598;SDS011;51008;51.504;11.548;2022-09-03T10:11:36;5.80;;;1.73;;
64598;SDS011;51008;51.504;11.548;2022-09-03T10:16:41;3.15;;;1.58;;
64598;SDS011;51008;51.504;11.548;2022-09-03T10:27:11;5.28;;;1.50;;
64598;SDS011;51008;51.504;11.548;2022-09-03T10:37:35;4.72;;;1.75;;
64598;SDS011;51008;51.504;11.548;2022-09-03T10:49:05;7.18;;;1.92;;
64598;SDS011;51008;51.504;11.548;2022-09-03T10:54:14;4.10;;;1.60;;
64598;SDS011;51008;51.504;11.548;2022-09-03T10:59:38;3.63;;;1.90;;
64598;SDS011;51008;51.504;11.548;2022-09-03T11:05:09;3.13;;;1.67;;
64598;SDS011;51008;51.504;11.548;2022-09-03T11:15:34;2.83;;;1.60;;
64598;SDS011;51008;51.504;11.548;2022-09-03T11:20:57;5.97;;;1.90;;
64598;SDS011;51008;51.504;11.548;2022-09-03T11:26:04;4.47;;;1.75;;
64598;SDS011;51008;51.504;11.548;2022-09-03T11:31:15;2.88;;;1.58;;
64598;SDS011;51008;51.504;11.548;2022-09-03T11:36:30;5.88;;;1.70;;
64598;SDS011;51008;51.504;11.548;2022-09-03T11:41:33;5.68;;;1.73;;
64598;SDS011;51008;51.504;11.548;2022-09-03T11:46:35;5.78;;;2.05;;
64598;SDS011;51008;51.504;11.548;2022-09-03T11:51:36;3.25;;;1.60;;
64598;SDS011;51008;51.504;11.548;2022-09-03T12:01:41;14.05;;;1.77;;
64598;SDS011;51008;51.504;11.548;2022-09-03T12:12:19;8.90;;;2.00;;
64598;SDS011;51008;51.504;11.548;2022-09-03T12:17:47;4.60;;;1.77;;
64598;SDS011;51008;51.504;11.548;2022-09-03T12:22:52;3.97;;;1.60;;
64598;SDS011;51008;51.504;11.548;2022-09-03T12:27:53;5.30;;;1.75;;
64598;SDS011;51008;51.504;11.548;2022-09-03T12:33:04;8.57;;;2.00;;
64598;SDS011;51008;51.504;11.548;2022-09-03T12:38:06;3.17;;;1.50;;
64598;SDS011;51008;51.504;11.548;2022-09-03T12:43:12;5.60;;;1.95;;
64598;SDS011;51008;51.504;11.548;2022-09-03T12:48:14;4.00;;;1.90;;
64598;SDS011;51008;51.504;11.548;2022-09-03T12:53:20;5.20;;;1.92;;
64598;SDS011;51008;51.504;11.548;2022-09-03T12:58:32;3.33;;;1.70;;
64598;SDS011;51008;51.504;11.548;2022-09-03T13:08:50;3.13;;;1.70;;
64598;SDS011;51008;51.504;11.548;2022-09-03T13:14:04;6.30;;;1.85;;
64598;SDS011;51008;51.504;11.548;2022-09-03T13:24:45;4.20;;;2.10;;
64598;SDS011;51008;51.504;11.548;2022-09-03T13:30:04;5.53;;;1.80;;
64598;SDS011;51008;51.504;11.548;2022-09-03T13:35:23;4.90;;;1.90;;
64598;SDS011;51008;51.504;11.548;2022-09-03T13:40:47;7.07;;;1.92;;
64598;SDS011;51008;51.504;11.548;2022-09-03T13:46:04;5.22;;;1.70;;
64598;SDS011;51008;51.504;11.548;2022-09-03T13:51:11;3.75;;;2.17;;
64598;SDS011;51008;51.504;11.548;2022-09-03T13:56:22;6.07;;;1.85;;
64598;SDS011;51008;51.504;11.548;2022-09-03T14:07:51;5.45;;;2.00;;
64598;SDS011;51008;51.504;11.548;2022-09-03T14:12:47;7.88;;;1.88;;
64598;SDS011;51008;51.504;11.548;2022-09-03T14:17:57;5.43;;;1.80;;
64598;SDS011;51008;51.504;11.548;2022-09-03T14:23:34;4.40;;;1.70;;
64598;SDS011;51008;51.504;11.548;2022-09-03T14:28:48;6.05;;;2.08;;
64598;SDS011;51008;51.504;11.548;2022-09-03T14:34:06;5.03;;;2.15;;
64598;SDS011;51008;51.504;11.548;2022-09-03T14:39:25;2.83;;;1.50;;
64598;SDS011;51008;51.504;11.548;2022-09-03T14:44:38;4.68;;;1.90;;
64598;SDS011;51008;51.504;11.548;2022-09-03T15:06:01;6.10;;;1.95;;
64598;SDS011;51008;51.504;11.548;2022-09-03T15:10:51;3.97;;;1.85;;
64598;SDS011;51008;51.504;11.548;2022-09-03T15:36:42;8.40;;;2.38;;
64598;SDS011;51008;51.504;11.548;2022-09-03T15:41:52;7.00;;;2.22;;
64598;SDS011;51008;51.504;11.548;2022-09-03T15:47:04;4.03;;;2.00;;
64598;SDS011;51008;51.504;11.548;2022-09-03T16:03:08;8.85;;;2.67;;
64598;SDS011;51008;51.504;11.548;2022-09-03T16:13:35;4.80;;;2.00;;
64598;SDS011;51008;51.504;11.548;2022-09-03T16:18:45;5.35;;;2.00;;
64598;SDS011;51008;51.504;11.548;2022-09-03T16:29:26;9.85;;;2.80;;
64598;SDS011;51008;51.504;11.548;2022-09-03T17:02:01;6.25;;;2.28;;
64598;SDS011;51008;51.504;11.548;2022-09-03T17:17:55;6.43;;;2.60;;
64598;SDS011;51008;51.504;11.548;2022-09-03T17:23:20;8.98;;;4.35;;
64598;SDS011;51008;51.504;11.548;2022-09-03T17:39:19;4.30;;;2.47;;
64598;SDS011;51008;51.504;11.548;2022-09-03T17:45:13;4.45;;;1.95;;
64598;SDS011;51008;51.504;11.548;2022-09-03T17:50:17;5.10;;;2.35;;
64598;SDS011;51008;51.504;11.548;2022-09-03T18:00:51;6.50;;;2.78;;
64598;SDS011;51008;51.504;11.548;2022-09-03T18:05:58;6.72;;;2.33;;
64598;SDS011;51008;51.504;11.548;2022-09-03T18:11:38;4.30;;;2.05;;
64598;SDS011;51008;51.504;11.548;2022-09-03T18:16:36;4.05;;;2.10;;
64598;SDS011;51008;51.504;11.548;2022-09-03T18:21:46;4.32;;;2.15;;
64598;SDS011;51008;51.504;11.548;2022-09-03T18:26:55;5.03;;;2.42;;
64598;SDS011;51008;51.504;11.548;2022-09-03T18:31:59;6.93;;;2.55;;
64598;SDS011;51008;51.504;11.548;2022-09-03T18:37:00;5.60;;;2.60;;
64598;SDS011;51008;51.504;11.548;2022-09-03T18:42:09;4.13;;;2.10;;
64598;SDS011;51008;51.504;11.548;2022-09-03T18:52:58;5.35;;;2.05;;
64598;SDS011;51008;51.504;11.548;2022-09-03T18:58:19;3.80;;;2.10;;
64598;SDS011;51008;51.504;11.548;2022-09-03T19:03:51;4.20;;;2.03;;
64598;SDS011;51008;51.504;11.548;2022-09-03T19:09:24;7.07;;;2.40;;
64598;SDS011;51008;51.504;11.548;2022-09-03T19:20:11;7.20;;;3.60;;
64598;SDS011;51008;51.504;11.548;2022-09-03T19:25:25;28.13;;;18.83;;
64598;SDS011;51008;51.504;11.548;2022-09-03T19:30:33;17.48;;;11.27;;
64598;SDS011;51008;51.504;11.548;2022-09-03T19:41:18;7.93;;;4.43;;
64598;SDS011;51008;51.504;11.548;2022-09-03T19:51:38;8.55;;;3.58;;
64598;SDS011;51008;51.504;11.548;2022-09-03T19:57:00;6.20;;;2.50;;
64598;SDS011;51008;51.504;11.548;2022-09-03T20:02:03;6.57;;;2.53;;
64598;SDS011;51008;51.504;11.548;2022-09-03T20:07:05;9.20;;;2.95;;
64598;SDS011;51008;51.504;11.548;2022-09-03T20:12:09;7.22;;;3.10;;
64598;SDS011;51008;51.504;11.548;2022-09-03T20:17:16;7.43;;;3.10;;
64598;SDS011;51008;51.504;11.548;2022-09-03T20:22:32;11.60;;;3.97;;
64598;SDS011;51008;51.504;11.548;2022-09-03T20:33:06;7.15;;;3.00;;
64598;SDS011;51008;51.504;11.548;2022-09-03T20:43:27;5.97;;;3.10;;
64598;SDS011;51008;51.504;11.548;2022-09-03T20:48:38;9.15;;;3.55;;
64598;SDS011;51008;51.504;11.548;2022-09-03T20:54:00;7.90;;;3.25;;
64598;SDS011;51008;51.504;11.548;2022-09-03T21:05:26;6.68;;;3.22;;
64598;SDS011;51008;51.504;11.548;2022-09-03T21:10:31;6.53;;;3.15;;
64598;SDS011;51008;51.504;11.548;2022-09-03T21:15:43;7.63;;;3.30;;
64598;SDS011;51008;51.504;11.548;2022-09-03T21:26:26;6.18;;;3.25;;
64598;SDS011;51008;51.504;11.548;2022-09-03T21:31:31;14.98;;;3.70;;
64598;SDS011;51008;51.504;11.548;2022-09-03T21:36:51;9.23;;;3.30;;
64598;SDS011;51008;51.504;11.548;2022-09-03T21:47:26;7.45;;;3.53;;
64598;SDS011;51008;51.504;11.548;2022-09-03T21:52:30;10.07;;;3.33;;
64598;SDS011;51008;51.504;11.548;2022-09-03T21:57:55;7.60;;;3.33;;
64598;SDS011;51008;51.504;11.548;2022-09-03T22:03:02;7.40;;;3.77;;
64598;SDS011;51008;51.504;11.548;2022-09-03T22:13:27;7.82;;;3.35;;
64598;SDS011;51008;51.504;11.548;2022-09-03T22:18:46;8.57;;;3.35;;
64598;SDS011;51008;51.504;11.548;2022-09-03T22:29:02;10.57;;;3.50;;
64598;SDS011;51008;51.504;11.548;2022-09-03T22:34:25;6.53;;;3.65;;
64598;SDS011;51008;51.504;11.548;2022-09-03T22:39:54;5.45;;;3.25;;
64598;SDS011;51008;51.504;11.548;2022-09-03T22:45:27;6.75;;;3.33;;
64598;SDS011;51008;51.504;11.548;2022-09-03T22:56:00;9.00;;;3.70;;
64598;SDS011;51008;51.504;11.548;2022-09-03T23:01:08;7.22;;;3.50;;
64598;SDS011;51008;51.504;11.548;2022-09-03T23:06:28;9.88;;;3.47;;
64598;SDS011;51008;51.504;11.548;2022-09-03T23:11:40;11.07;;;4.25;;
64598;SDS011;51008;51.504;11.548;2022-09-03T23:16:51;7.40;;;3.70;;
64598;SDS011;51008;51.504;11.548;2022-09-03T23:22:02;9.25;;;3.58;;
64598;SDS011;51008;51.504;11.548;2022-09-03T23:27:06;11.57;;;4.50;;
64598;SDS011;51008;51.504;11.548;2022-09-03T23:32:12;9.65;;;3.90;;
64598;SDS011;51008;51.504;11.548;2022-09-03T23:48:27;17.83;;;4.32;;
